Time,TemperatureF,DewpointF,PressureIn,WindDirection,WindDirectionDegrees,WindSpeedMPH,WindSpeedGustMPH,Humidity,HourlyPrecipIn,Conditions,Clouds,dailyrainin,SolarRadiationWatts/m^2,SoftwareType,DateUTC
2013-02-25 00:01:00,28.0,7.0,-100.00,WSW,250,3.0,9.0,40,0.00,,,0.00,0.000000,,2013-02-25 07:01:00,
2013-02-25 00:32:00,26.0,6.0,-100.00,West,281,2.0,8.0,42,0.00,,,0.00,0.000000,,2013-02-25 07:32:00,
2013-02-25 00:42:00,26.0,6.0,-100.00,West,281,2.0,8.0,42,0.00,,,0.00,0.000000,,2013-02-25 07:42:00,
2013-02-25 00:52:00,26.0,6.0,-100.00,West,281,2.0,8.0,42,0.00,,,0.00,0.000000,,2013-02-25 07:52:00,
2013-02-25 01:01:00,26.0,6.0,-100.00,West,281,2.0,8.0,42,0.00,,,0.00,0.000000,,2013-02-25 08:01:00,
2013-02-25 01:32:00,27.0,6.0,-100.00,ESE,122,1.0,8.0,41,0.00,,,0.00,0.000000,,2013-02-25 08:32:00,
2013-02-25 01:42:00,27.0,6.0,-100.00,ESE,122,1.0,8.0,41,0.00,,,0.00,0.000000,,2013-02-25 08:42:00,
2013-02-25 01:52:00,27.0,6.0,-100.00,ESE,122,1.0,8.0,41,0.00,,,0.00,0.000000,,2013-02-25 08:52:00,
2013-02-25 02:01:00,27.0,6.0,-100.00,ESE,122,1.0,8.0,41,0.00,,,0.00,0.000000,,2013-02-25 09:01:00,
2013-02-25 02:32:00,25.0,6.0,-100.00,West,276,5.0,5.0,44,0.00,,,0.00,0.000000,,2013-02-25 09:32:00,
2013-02-25 02:42:00,25.0,6.0,-100.00,West,276,5.0,5.0,44,0.00,,,0.00,0.000000,,2013-02-25 09:42:00,
2013-02-25 02:52:00,25.0,6.0,-100.00,West,276,5.0,5.0,44,0.00,,,0.00,0.000000,,2013-02-25 09:52:00,
2013-02-25 03:01:00,25.0,6.0,-100.00,West,276,5.0,5.0,44,0.00,,,0.00,0.000000,,2013-02-25 10:01:00,
2013-02-25 03:21:00,25.0,6.0,-100.00,West,281,0.0,8.0,44,0.00,,,0.00,0.000000,,2013-02-25 10:21:00,
2013-02-25 03:32:00,25.0,6.0,-100.00,West,281,0.0,8.0,44,0.00,,,0.00,0.000000,,2013-02-25 10:32:00,
2013-02-25 03:42:00,25.0,6.0,-100.00,West,281,0.0,8.0,44,0.00,,,0.00,0.000000,,2013-02-25 10:42:00,
2013-02-25 03:52:00,25.0,6.0,-100.00,West,281,0.0,8.0,44,0.00,,,0.00,0.000000,,2013-02-25 10:52:00,
2013-02-25 04:01:00,25.0,6.0,-100.00,West,281,0.0,8.0,44,0.00,,,0.00,0.000000,,2013-02-25 11:01:00,
2013-02-25 04:22:00,23.0,7.0,-100.00,NNE,16,2.0,8.0,50,0.00,,,0.00,0.000000,,2013-02-25 11:22:00,
2013-02-25 04:32:00,23.0,7.0,-100.00,NNE,16,2.0,8.0,50,0.00,,,0.00,0.000000,,2013-02-25 11:32:00,
2013-02-25 04:42:00,23.0,7.0,-100.00,NNE,16,2.0,8.0,50,0.00,,,0.00,0.000000,,2013-02-25 11:42:00,
2013-02-25 04:52:00,23.0,7.0,-100.00,NNE,16,2.0,8.0,50,0.00,,,0.00,0.000000,,2013-02-25 11:52:00,
2013-02-25 05:01:00,23.0,7.0,-100.00,NNE,16,2.0,8.0,50,0.00,,,0.00,0.000000,,2013-02-25 12:01:00,
2013-02-25 05:22:00,26.0,9.0,-100.00,SW,227,8.0,8.0,47,0.00,,,0.00,0.000000,,2013-02-25 12:22:00,
2013-02-25 05:32:00,26.0,9.0,-100.00,SW,227,8.0,8.0,47,0.00,,,0.00,0.000000,,2013-02-25 12:32:00,
2013-02-25 05:42:00,26.0,9.0,-100.00,SW,227,8.0,8.0,47,0.00,,,0.00,0.000000,,2013-02-25 12:42:00,
2013-02-25 05:54:00,26.0,9.0,-100.00,SW,227,8.0,8.0,47,0.00,,,0.00,0.000000,,2013-02-25 12:54:00,
2013-02-25 06:01:00,26.0,9.0,-100.00,SW,227,8.0,8.0,47,0.00,,,0.00,0.000000,,2013-02-25 13:01:00,
2013-02-25 06:23:00,26.0,5.0,-100.00,SW,220,18.0,19.0,40,0.00,,,0.00,0.000000,,2013-02-25 13:23:00,
2013-02-25 06:32:00,26.0,5.0,-100.00,SW,220,18.0,19.0,40,0.00,,,0.00,0.000000,,2013-02-25 13:32:00,
2013-02-25 06:42:00,26.0,5.0,-100.00,SW,220,18.0,19.0,40,0.00,,,0.00,0.000000,,2013-02-25 13:42:00,
2013-02-25 06:52:00,26.0,5.0,-100.00,SW,220,18.0,19.0,40,0.00,,,0.00,0.000000,,2013-02-25 13:52:00,
2013-02-25 07:02:00,26.0,5.0,-100.00,SW,220,18.0,19.0,40,0.00,,,0.00,0.000000,,2013-02-25 14:02:00,
2013-02-25 07:32:00,26.0,5.0,-100.00,SW,226,22.0,23.0,40,0.00,,,0.00,0.000000,,2013-02-25 14:32:00,
2013-02-25 07:42:00,26.0,5.0,-100.00,SW,226,22.0,23.0,40,0.00,,,0.00,0.000000,,2013-02-25 14:42:00,
2013-02-25 07:52:00,26.0,5.0,-100.00,SW,226,22.0,23.0,40,0.00,,,0.00,0.000000,,2013-02-25 14:52:00,
2013-02-25 08:02:00,26.0,5.0,-100.00,SW,226,22.0,23.0,40,0.00,,,0.00,0.000000,,2013-02-25 15:02:00,
2013-02-25 08:22:00,26.0,5.0,-100.00,SW,216,16.0,29.0,40,0.00,,,0.00,24.000000,,2013-02-25 15:22:00,
2013-02-25 08:32:00,26.0,5.0,-100.00,SW,216,16.0,29.0,40,0.00,,,0.00,24.000000,,2013-02-25 15:32:00,
2013-02-25 08:42:00,26.0,5.0,-100.00,SW,216,16.0,29.0,40,0.00,,,0.00,24.000000,,2013-02-25 15:42:00,
2013-02-25 08:52:00,26.0,5.0,-100.00,SW,216,16.0,29.0,40,0.00,,,0.00,24.000000,,2013-02-25 15:52:00,
2013-02-25 09:01:00,26.0,5.0,-100.00,SW,216,16.0,29.0,40,0.00,,,0.00,24.000000,,2013-02-25 16:01:00,
2013-02-25 09:32:00,28.0,5.0,-100.00,SW,222,19.0,27.0,37,0.00,,,0.00,107.000000,,2013-02-25 16:32:00,
2013-02-25 09:42:00,28.0,5.0,-100.00,SW,222,19.0,27.0,37,0.00,,,0.00,107.000000,,2013-02-25 16:42:00,
2013-02-25 09:52:00,28.0,5.0,-100.00,SW,222,19.0,27.0,37,0.00,,,0.00,107.000000,,2013-02-25 16:52:00,
2013-02-25 10:01:00,28.0,5.0,-100.00,SW,222,19.0,27.0,37,0.00,,,0.00,107.000000,,2013-02-25 17:01:00,
2013-02-25 10:32:00,33.0,8.0,-100.00,SSW,210,16.0,31.0,34,0.00,,,0.00,298.000000,,2013-02-25 17:32:00,
2013-02-25 10:42:00,33.0,8.0,-100.00,SSW,210,16.0,31.0,34,0.00,,,0.00,298.000000,,2013-02-25 17:42:00,
2013-02-25 10:52:00,33.0,8.0,-100.00,SSW,210,16.0,31.0,34,0.00,,,0.00,298.000000,,2013-02-25 17:52:00,
2013-02-25 11:01:00,33.0,8.0,-100.00,SSW,210,16.0,31.0,34,0.00,,,0.00,298.000000,,2013-02-25 18:01:00,
2013-02-25 11:33:00,37.0,7.0,-100.00,South,184,12.0,30.0,28,0.00,,,-99.99,486.000000,,2013-02-25 18:33:00,
2013-02-25 11:42:00,37.0,7.0,-100.00,South,184,12.0,30.0,28,0.00,,,-99.99,486.000000,,2013-02-25 18:42:00,
2013-02-25 11:52:00,37.0,7.0,-100.00,South,184,12.0,30.0,28,0.00,,,-99.99,486.000000,,2013-02-25 18:52:00,
2013-02-25 12:01:00,37.0,7.0,-100.00,South,184,12.0,30.0,28,0.00,,,-99.99,486.000000,,2013-02-25 19:01:00,
2013-02-25 12:32:00,35.0,7.0,-100.00,SW,218,20.0,25.0,30,0.00,,,0.00,384.000000,,2013-02-25 19:32:00,
2013-02-25 12:42:00,35.0,7.0,-100.00,SW,218,20.0,25.0,30,0.00,,,0.00,384.000000,,2013-02-25 19:42:00,
2013-02-25 12:52:00,35.0,7.0,-100.00,SW,218,20.0,25.0,30,0.00,,,0.00,384.000000,,2013-02-25 19:52:00,
2013-02-25 13:01:00,35.0,7.0,-100.00,SW,218,20.0,25.0,30,0.00,,,0.00,384.000000,,2013-02-25 20:01:00,
2013-02-25 13:22:00,37.0,9.0,-100.00,SW,220,17.0,35.0,31,0.00,,,0.00,250.000000,,2013-02-25 20:22:00,
2013-02-25 13:32:00,37.0,9.0,-100.00,SW,220,17.0,35.0,31,0.00,,,0.00,250.000000,,2013-02-25 20:32:00,
2013-02-25 13:42:00,37.0,9.0,-100.00,SW,220,17.0,35.0,31,0.00,,,0.00,250.000000,,2013-02-25 20:42:00,
2013-02-25 13:52:00,37.0,9.0,-100.00,SW,220,17.0,35.0,31,0.00,,,0.00,250.000000,,2013-02-25 20:52:00,
2013-02-25 14:01:00,37.0,9.0,-100.00,SW,220,17.0,35.0,31,0.00,,,0.00,250.000000,,2013-02-25 21:01:00,
2013-02-25 14:32:00,40.0,12.0,-100.00,SW,221,15.0,29.0,31,0.00,,,0.00,329.000000,,2013-02-25 21:32:00,
2013-02-25 14:42:00,40.0,12.0,-100.00,SW,221,15.0,29.0,31,0.00,,,0.00,329.000000,,2013-02-25 21:42:00,
2013-02-25 14:52:00,40.0,12.0,-100.00,SW,221,15.0,29.0,31,0.00,,,0.00,329.000000,,2013-02-25 21:52:00,
2013-02-25 15:01:00,40.0,12.0,-100.00,SW,221,15.0,29.0,31,0.00,,,0.00,329.000000,,2013-02-25 22:01:00,
2013-02-25 15:32:00,39.0,15.0,-100.00,West,271,10.0,23.0,37,0.00,,,0.00,336.000000,,2013-02-25 22:32:00,
2013-02-25 15:42:00,39.0,15.0,-100.00,West,271,10.0,23.0,37,0.00,,,0.00,336.000000,,2013-02-25 22:42:00,
2013-02-25 15:52:00,39.0,15.0,-100.00,West,271,10.0,23.0,37,0.00,,,0.00,336.000000,,2013-02-25 22:52:00,
2013-02-25 16:01:00,39.0,15.0,-100.00,West,271,10.0,23.0,37,0.00,,,0.00,336.000000,,2013-02-25 23:01:00,
2013-02-25 16:32:00,34.0,18.0,-100.00,SSW,207,9.0,26.0,51,0.00,,,0.00,123.000000,,2013-02-25 23:32:00,
2013-02-25 16:42:00,34.0,18.0,-100.00,SSW,207,9.0,26.0,51,0.00,,,0.00,123.000000,,2013-02-25 23:42:00,
2013-02-25 16:52:00,34.0,18.0,-100.00,SSW,207,9.0,26.0,51,0.00,,,0.00,123.000000,,2013-02-25 23:52:00,
2013-02-25 17:01:00,34.0,18.0,-100.00,SSW,207,9.0,26.0,51,0.00,,,0.00,123.000000,,2013-02-26 00:01:00,
2013-02-25 17:22:00,33.0,23.0,-100.00,NE,37,7.0,15.0,66,0.00,,,0.00,87.000000,,2013-02-26 00:22:00,
2013-02-25 17:32:00,33.0,23.0,-100.00,NE,37,7.0,15.0,66,0.00,,,0.00,87.000000,,2013-02-26 00:32:00,
2013-02-25 17:42:00,33.0,23.0,-100.00,NE,37,7.0,15.0,66,0.00,,,0.00,87.000000,,2013-02-26 00:42:00,
2013-02-25 17:52:00,33.0,23.0,-100.00,NE,37,7.0,15.0,66,0.00,,,0.00,87.000000,,2013-02-26 00:52:00,
2013-02-25 18:01:00,33.0,23.0,-100.00,NE,37,7.0,15.0,66,0.00,,,0.00,87.000000,,2013-02-26 01:01:00,
2013-02-25 18:32:00,31.0,22.0,-100.00,SSE,152,2.0,13.0,68,0.00,,,0.00,16.000000,,2013-02-26 01:32:00,
2013-02-25 18:42:00,31.0,22.0,-100.00,SSE,152,2.0,13.0,68,0.00,,,0.00,16.000000,,2013-02-26 01:42:00,
2013-02-25 18:52:00,31.0,22.0,-100.00,SSE,152,2.0,13.0,68,0.00,,,0.00,16.000000,,2013-02-26 01:52:00,
2013-02-25 19:01:00,31.0,22.0,-100.00,SSE,152,2.0,13.0,68,0.00,,,0.00,16.000000,,2013-02-26 02:01:00,
2013-02-25 19:32:00,31.0,21.0,-100.00,SW,231,7.0,9.0,66,0.00,,,0.00,1.000000,,2013-02-26 02:32:00,
2013-02-25 19:42:00,31.0,21.0,-100.00,SW,231,7.0,9.0,66,0.00,,,0.00,1.000000,,2013-02-26 02:42:00,
2013-02-25 19:52:00,31.0,21.0,-100.00,SW,231,7.0,9.0,66,0.00,,,0.00,1.000000,,2013-02-26 02:52:00,
2013-02-25 20:01:00,31.0,21.0,-100.00,SW,231,7.0,9.0,66,0.00,,,0.00,1.000000,,2013-02-26 03:01:00,
2013-02-25 20:22:00,30.0,18.0,-100.00,SW,235,3.0,10.0,60,0.00,,,0.00,0.000000,,2013-02-26 03:22:00,
2013-02-25 20:32:00,30.0,18.0,-100.00,SW,235,3.0,10.0,60,0.00,,,0.00,0.000000,,2013-02-26 03:32:00,
2013-02-25 20:42:00,30.0,18.0,-100.00,SW,235,3.0,10.0,60,0.00,,,0.00,0.000000,,2013-02-26 03:42:00,
2013-02-25 20:52:00,30.0,18.0,-100.00,SW,235,3.0,10.0,60,0.00,,,0.00,0.000000,,2013-02-26 03:52:00,
2013-02-25 21:01:00,30.0,18.0,-100.00,SW,235,3.0,10.0,60,0.00,,,0.00,0.000000,,2013-02-26 04:01:00,
2013-02-25 21:32:00,30.0,19.0,-100.00,WSW,245,5.0,12.0,64,0.00,,,0.00,0.000000,,2013-02-26 04:32:00,
2013-02-25 21:42:00,30.0,19.0,-100.00,WSW,245,5.0,12.0,64,0.00,,,0.00,0.000000,,2013-02-26 04:42:00,
2013-02-25 21:52:00,30.0,19.0,-100.00,WSW,245,5.0,12.0,64,0.00,,,0.00,0.000000,,2013-02-26 04:52:00,
2013-02-25 22:01:00,30.0,19.0,-100.00,WSW,245,5.0,12.0,64,0.00,,,0.00,0.000000,,2013-02-26 05:01:00,
2013-02-25 22:32:00,29.0,15.0,-100.00,NW,315,1.0,10.0,56,0.00,,,0.00,0.000000,,2013-02-26 05:32:00,
2013-02-25 22:43:00,29.0,15.0,-100.00,NW,315,1.0,10.0,56,0.00,,,0.00,0.000000,,2013-02-26 05:43:00,
2013-02-25 22:52:00,29.0,15.0,-100.00,NW,315,1.0,10.0,56,0.00,,,0.00,0.000000,,2013-02-26 05:52:00,
2013-02-25 23:01:00,29.0,15.0,-100.00,NW,315,1.0,10.0,56,0.00,,,0.00,0.000000,,2013-02-26 06:01:00,
2013-02-25 23:32:00,28.0,13.0,-100.00,SW,230,6.0,10.0,52,0.00,,,0.00,0.000000,,2013-02-26 06:32:00,
2013-02-25 23:42:00,28.0,13.0,-100.00,SW,230,6.0,10.0,52,0.00,,,0.00,0.000000,,2013-02-26 06:42:00,
2013-02-25 23:52:00,28.0,13.0,-100.00,SW,230,6.0,10.0,52,0.00,,,0.00,0.000000,,2013-02-26 06:52:00,